Time;durP1;ratioP1;P1;durP2;ratioP2;P2;SDS_P1;SDS_P2;PMS_P1;PMS_P2;Temp;Humidity;BMP_temperature;BMP_pressure;BME280_temperature;BME280_humidity;BME280_pressure;Samples;Min_cycle;Max_cycle;Signal;HPM_P1;HPM_P2
2022/06/23 00:01:13;;;;;;;6.95;3.05;;;;;;;;;;5068739;28;20403;-91
2022/06/23 00:03:39;;;;;;;8.80;2.80;;;;;;;;;;5077190;28;20506;-91
2022/06/23 00:06:07;;;;;;;7.05;2.75;;;;;;;;;;5076933;28;20403;-90
2022/06/23 00:08:42;;;;;;;7.07;2.90;;;;;;;;;;5081380;28;20926;-92
2022/06/23 00:11:21;;;;;;;5.03;2.75;;;;;;;;;;5067466;28;20403;-91
2022/06/23 00:13:48;;;;;;;4.20;2.55;;;;;;;;;;5081551;28;20379;-91
2022/06/23 00:16:25;;;;;;;4.15;2.50;;;;;;;;;;5080334;28;20372;-92
2022/06/23 00:18:51;;;;;;;4.00;2.88;;;;;;;;;;5079662;28;20460;-92
2022/06/23 00:21:22;;;;;;;5.77;2.70;;;;;;;;;;5080299;28;20395;-92
2022/06/23 00:23:51;;;;;;;5.68;2.90;;;;;;;;;;5080082;28;20414;-91
2022/06/23 00:26:21;;;;;;;8.65;2.67;;;;;;;;;;5080604;28;20392;-91
2022/06/23 00:28:47;;;;;;;5.35;2.63;;;;;;;;;;5072053;28;20371;-90
2022/06/23 00:31:22;;;;;;;5.30;2.92;;;;;;;;;;5085980;28;20384;-92
2022/06/23 00:33:49;;;;;;;6.35;2.90;;;;;;;;;;5073848;28;20379;-90
2022/06/23 00:36:36;;;;;;;6.60;2.88;;;;;;;;;;5083389;28;20380;-93
2022/06/23 00:39:03;;;;;;;5.35;3.08;;;;;;;;;;5070125;28;20471;-91
2022/06/23 00:41:32;;;;;;;3.25;2.85;;;;;;;;;;5081086;28;20387;-92
2022/06/23 00:44:02;;;;;;;6.25;3.00;;;;;;;;;;5078563;28;20406;-92
2022/06/23 00:46:31;;;;;;;5.32;2.78;;;;;;;;;;5079211;28;20375;-91
2022/06/23 00:49:02;;;;;;;5.05;3.20;;;;;;;;;;5076698;28;20394;-91
2022/06/23 00:51:32;;;;;;;6.07;2.80;;;;;;;;;;5070948;28;20380;-91
2022/06/23 00:54:07;;;;;;;8.25;2.90;;;;;;;;;;5078212;28;20432;-91
2022/06/23 00:56:51;;;;;;;5.47;2.90;;;;;;;;;;5073433;28;20741;-91
2022/06/23 00:59:20;;;;;;;7.78;3.20;;;;;;;;;;5077490;28;20372;-91
2022/06/23 01:01:57;;;;;;;5.28;3.08;;;;;;;;;;5070717;28;20504;-91
2022/06/23 01:04:41;;;;;;;6.90;2.90;;;;;;;;;;5077824;28;20411;-91
2022/06/23 01:07:07;;;;;;;5.22;2.70;;;;;;;;;;5078691;28;20375;-91
2022/06/23 01:09:45;;;;;;;4.00;2.47;;;;;;;;;;5078720;28;20740;-92
2022/06/23 01:12:20;;;;;;;5.90;2.95;;;;;;;;;;5078019;28;20406;-91
2022/06/23 01:14:53;;;;;;;4.82;2.78;;;;;;;;;;5077393;28;20394;-91
2022/06/23 01:17:31;;;;;;;4.85;2.80;;;;;;;;;;5077139;28;20417;-92
2022/06/23 01:20:00;;;;;;;5.67;2.77;;;;;;;;;;5076554;28;20376;-91
2022/06/23 01:22:45;;;;;;;5.00;2.90;;;;;;;;;;5077489;28;20388;-94
2022/06/23 01:25:17;;;;;;;3.67;2.78;;;;;;;;;;5077126;28;20876;-93
2022/06/23 01:27:55;;;;;;;5.78;2.85;;;;;;;;;;5077597;28;20462;-93
2022/06/23 01:30:22;;;;;;;5.93;2.60;;;;;;;;;;5077918;28;20376;-91
2022/06/23 01:32:51;;;;;;;7.43;3.15;;;;;;;;;;5065877;28;20393;-90
2022/06/23 01:35:26;;;;;;;6.30;3.27;;;;;;;;;;5066048;28;20509;-90
2022/06/23 01:38:12;;;;;;;3.28;2.83;;;;;;;;;;5076299;28;20387;-91
2022/06/23 01:40:47;;;;;;;7.43;3.38;;;;;;;;;;5073341;28;20376;-90
2022/06/23 01:43:22;;;;;;;5.05;3.05;;;;;;;;;;5075831;28;20399;-91
2022/06/23 01:46:00;;;;;;;4.38;2.90;;;;;;;;;;5075378;28;20380;-90
2022/06/23 01:51:20;;;;;;;4.32;2.78;;;;;;;;;;5077085;28;20391;-91
2022/06/23 01:53:46;;;;;;;7.22;3.30;;;;;;;;;;5075177;28;20386;-89
2022/06/23 01:56:15;;;;;;;4.63;2.83;;;;;;;;;;5075333;28;20391;-91
2022/06/23 01:58:47;;;;;;;4.32;2.92;;;;;;;;;;5076717;28;20462;-91
2022/06/23 02:01:23;;;;;;;6.55;2.90;;;;;;;;;;5067999;28;20399;-92
2022/06/23 02:03:54;;;;;;;4.47;2.60;;;;;;;;;;5084991;28;20408;-92
2022/06/23 02:06:30;;;;;;;4.28;3.00;;;;;;;;;;5076344;28;20383;-91
2022/06/23 02:09:04;;;;;;;5.35;2.95;;;;;;;;;;5076364;28;20377;-90
2022/06/23 02:11:34;;;;;;;5.65;2.78;;;;;;;;;;5075387;28;20396;-90
2022/06/23 02:14:00;;;;;;;3.65;2.90;;;;;;;;;;5075089;28;20372;-90
2022/06/23 02:16:31;;;;;;;5.30;3.22;;;;;;;;;;5075986;28;20380;-90
2022/06/23 02:19:15;;;;;;;4.15;2.80;;;;;;;;;;5075088;28;20372;-91
2022/06/23 02:22:00;;;;;;;4.40;3.20;;;;;;;;;;5074234;28;20380;-91
2022/06/23 02:24:35;;;;;;;6.18;3.10;;;;;;;;;;5075437;28;20408;-92
2022/06/23 02:27:23;;;;;;;6.22;3.05;;;;;;;;;;5061980;28;20364;-91
2022/06/23 02:29:55;;;;;;;4.45;2.95;;;;;;;;;;5076268;28;20410;-91
2022/06/23 02:32:25;;;;;;;3.97;2.83;;;;;;;;;;5068669;28;20375;-91
2022/06/23 02:34:56;;;;;;;4.77;3.10;;;;;;;;;;5076814;28;20388;-91
2022/06/23 02:37:34;;;;;;;4.65;2.88;;;;;;;;;;5073546;28;20400;-91
2022/06/23 02:40:00;;;;;;;5.70;2.97;;;;;;;;;;5073390;28;20379;-91
2022/06/23 02:42:30;;;;;;;5.38;2.92;;;;;;;;;;5063425;28;20423;-91
2022/06/23 02:44:59;;;;;;;5.32;3.00;;;;;;;;;;5075820;28;20411;-91
2022/06/23 02:47:44;;;;;;;5.32;3.20;;;;;;;;;;5075941;28;20458;-91
2022/06/23 02:50:32;;;;;;;4.38;3.08;;;;;;;;;;5075496;28;20372;-91
2022/06/23 02:53:17;;;;;;;3.30;2.75;;;;;;;;;;5075833;28;20376;-92
2022/06/23 02:55:43;;;;;;;6.20;3.70;;;;;;;;;;5072509;28;20372;-92
2022/06/23 02:58:32;;;;;;;4.87;3.40;;;;;;;;;;5074752;28;20415;-92
2022/06/23 03:01:09;;;;;;;5.20;3.95;;;;;;;;;;5062800;28;20403;-92
2022/06/23 03:03:44;;;;;;;5.22;4.53;;;;;;;;;;5075256;28;20562;-92
2022/06/23 03:06:31;;;;;;;4.93;4.30;;;;;;;;;;5061603;28;20884;-92
2022/06/23 03:09:00;;;;;;;4.55;4.13;;;;;;;;;;5073990;28;20409;-92
2022/06/23 03:11:51;;;;;;;5.60;5.10;;;;;;;;;;5063474;28;20380;-91
2022/06/23 03:14:34;;;;;;;5.75;5.15;;;;;;;;;;5074167;28;20418;-91
2022/06/23 03:17:10;;;;;;;5.18;4.60;;;;;;;;;;5063819;28;20387;-92
2022/06/23 03:19:39;;;;;;;4.75;4.35;;;;;;;;;;5075908;28;20388;-91
2022/06/23 03:22:16;;;;;;;5.22;4.82;;;;;;;;;;5074544;28;20390;-91
2022/06/23 03:24:49;;;;;;;4.67;4.17;;;;;;;;;;5075414;28;20408;-92
2022/06/23 03:27:21;;;;;;;4.80;4.40;;;;;;;;;;5076331;28;20450;-91
2022/06/23 03:30:01;;;;;;;4.72;4.10;;;;;;;;;;5076608;28;20368;-90
2022/06/23 03:32:36;;;;;;;4.20;3.42;;;;;;;;;;5067911;28;20384;-90
2022/06/23 03:35:02;;;;;;;3.65;3.45;;;;;;;;;;5075264;28;20402;-91
2022/06/23 03:37:37;;;;;;;4.07;3.78;;;;;;;;;;5075994;28;20470;-92
2022/06/23 03:43:00;;;;;;;4.30;3.90;;;;;;;;;;5077539;28;20449;-91
2022/06/23 03:45:32;;;;;;;4.28;3.88;;;;;;;;;;5078672;28;20860;-92
2022/06/23 03:48:02;;;;;;;3.80;3.60;;;;;;;;;;5080046;28;20375;-92
2022/06/23 03:50:27;;;;;;;4.63;4.32;;;;;;;;;;5078270;28;20408;-93
2022/06/23 03:53:12;;;;;;;4.22;3.92;;;;;;;;;;5079517;28;20383;-92
2022/06/23 03:55:40;;;;;;;4.78;3.78;;;;;;;;;;5078736;28;20433;-90
2022/06/23 03:58:19;;;;;;;3.60;3.40;;;;;;;;;;5079891;28;20382;-91
2022/06/23 04:00:48;;;;;;;3.55;3.25;;;;;;;;;;5069544;28;20904;-92
2022/06/23 04:03:26;;;;;;;3.65;3.28;;;;;;;;;;5077690;28;20498;-91
2022/06/23 04:05:55;;;;;;;3.30;3.00;;;;;;;;;;5079003;28;20943;-90
2022/06/23 04:08:23;;;;;;;3.30;3.00;;;;;;;;;;5078370;28;20396;-92
2022/06/23 04:10:49;;;;;;;3.22;2.97;;;;;;;;;;5080019;28;20387;-92
2022/06/23 04:13:21;;;;;;;3.25;3.05;;;;;;;;;;5079648;28;20861;-91
2022/06/23 04:15:49;;;;;;;3.67;3.38;;;;;;;;;;5078186;28;20380;-92
2022/06/23 04:18:20;;;;;;;3.45;3.22;;;;;;;;;;5079091;28;20384;-92
2022/06/23 04:20:53;;;;;;;3.22;3.03;;;;;;;;;;5078241;28;20371;-92
2022/06/23 04:23:25;;;;;;;2.78;2.58;;;;;;;;;;5065756;28;20403;-93
2022/06/23 04:25:59;;;;;;;2.60;2.40;;;;;;;;;;5065784;28;20371;-91
2022/06/23 04:28:25;;;;;;;2.93;2.73;;;;;;;;;;5078923;28;20383;-90
2022/06/23 04:30:53;;;;;;;2.90;2.70;;;;;;;;;;5076718;28;20380;-90
2022/06/23 04:33:20;;;;;;;2.85;2.50;;;;;;;;;;5081255;28;20409;-93
2022/06/23 04:35:51;;;;;;;2.65;2.35;;;;;;;;;;5077861;28;20383;-92
2022/06/23 04:38:21;;;;;;;2.88;2.78;;;;;;;;;;5075642;28;20383;-91
2022/06/23 04:40:49;;;;;;;3.72;3.42;;;;;;;;;;5079369;28;20372;-93
2022/06/23 04:43:29;;;;;;;2.90;2.70;;;;;;;;;;5079065;28;20406;-92
2022/06/23 04:45:57;;;;;;;2.95;2.75;;;;;;;;;;5073863;28;20396;-92
2022/06/23 04:48:36;;;;;;;3.60;3.30;;;;;;;;;;5078970;28;20876;-93
2022/06/23 04:51:05;;;;;;;3.57;3.30;;;;;;;;;;5060951;28;20430;-92
2022/06/23 04:53:47;;;;;;;3.97;3.67;;;;;;;;;;5065190;28;20385;-91
2022/06/23 04:56:19;;;;;;;3.88;3.60;;;;;;;;;;5061897;28;20439;-92
2022/06/23 04:58:49;;;;;;;3.28;3.08;;;;;;;;;;5067676;28;20731;-91
2022/06/23 05:01:16;;;;;;;3.40;3.20;;;;;;;;;;5064612;28;20897;-92
2022/06/23 05:03:45;;;;;;;3.30;3.10;;;;;;;;;;5068334;28;20407;-91
2022/06/23 05:06:31;;;;;;;3.50;3.30;;;;;;;;;;5061502;28;20460;-92
2022/06/23 05:09:04;;;;;;;3.20;2.95;;;;;;;;;;5075745;28;20407;-91
2022/06/23 05:11:40;;;;;;;3.50;3.20;;;;;;;;;;5077391;28;20380;-91
2022/06/23 05:14:13;;;;;;;3.33;3.13;;;;;;;;;;5076103;28;20376;-92
2022/06/23 05:16:44;;;;;;;3.10;2.97;;;;;;;;;;5064313;28;20393;-92
2022/06/23 05:19:12;;;;;;;3.05;2.85;;;;;;;;;;5073450;28;20375;-92
2022/06/23 05:21:41;;;;;;;3.20;2.90;;;;;;;;;;5080895;28;20380;-90
2022/06/23 05:24:09;;;;;;;3.50;3.20;;;;;;;;;;5079413;28;20413;-92
2022/06/23 05:26:44;;;;;;;3.72;3.53;;;;;;;;;;5070298;28;20386;-92
2022/06/23 05:29:13;;;;;;;3.22;3.03;;;;;;;;;;5070126;28;20365;-92
2022/06/23 05:31:40;;;;;;;3.67;3.47;;;;;;;;;;5063887;28;20912;-91
2022/06/23 05:34:14;;;;;;;4.10;3.80;;;;;;;;;;5058943;28;20385;-92
2022/06/23 05:36:49;;;;;;;4.60;4.30;;;;;;;;;;5064142;28;20374;-92
2022/06/23 05:39:23;;;;;;;4.25;3.95;;;;;;;;;;5079788;28;20376;-92
2022/06/23 05:41:52;;;;;;;4.47;4.07;;;;;;;;;;5079406;28;20448;-92
2022/06/23 05:44:20;;;;;;;4.60;4.30;;;;;;;;;;5078433;28;20480;-91
2022/06/23 05:46:48;;;;;;;5.50;5.10;;;;;;;;;;5080463;28;20368;-92
2022/06/23 05:49:14;;;;;;;5.43;5.07;;;;;;;;;;5079365;28;20368;-92
2022/06/23 05:52:14;;;;;;;5.80;5.30;;;;;;;;;;5078469;28;20785;-91
2022/06/23 05:54:49;;;;;;;7.65;6.95;;;;;;;;;;5057832;28;20377;-91
2022/06/23 05:57:21;;;;;;;7.15;6.45;;;;;;;;;;5075651;28;20877;-92
2022/06/23 05:59:54;;;;;;;7.25;6.70;;;;;;;;;;5073257;28;20432;-93
2022/06/23 06:02:40;;;;;;;7.80;7.10;;;;;;;;;;5071093;28;20383;-92
2022/06/23 06:05:19;;;;;;;;;;;;;;;;;;;;;
2022/06/23 06:07:48;;;;;;;8.43;7.63;;;;;;;;;;5079762;28;20451;-91
2022/06/23 06:10:17;;;;;;;7.30;6.70;;;;;;;;;;5070507;28;20407;-91
2022/06/23 06:12:44;;;;;;;7.43;6.68;;;;;;;;;;5067696;28;20881;-90
2022/06/23 06:15:19;;;;;;;9.50;8.53;;;;;;;;;;5079733;28;20447;-91
2022/06/23 06:17:46;;;;;;;7.63;6.63;;;;;;;;;;5081930;28;20440;-93
2022/06/23 06:20:14;;;;;;;7.93;7.13;;;;;;;;;;5082994;28;20372;-91
2022/06/23 06:22:43;;;;;;;8.07;7.10;;;;;;;;;;5078210;28;20368;-91
2022/06/23 06:25:16;;;;;;;8.10;7.40;;;;;;;;;;5077721;28;20372;-91
2022/06/23 06:27:42;;;;;;;8.07;7.28;;;;;;;;;;5077671;28;20471;-92
2022/06/23 06:30:14;;;;;;;8.48;7.30;;;;;;;;;;5074233;28;20431;-92
2022/06/23 06:32:40;;;;;;;8.52;7.72;;;;;;;;;;5066034;28;20919;-91
2022/06/23 06:35:19;;;;;;;7.75;7.05;;;;;;;;;;5070606;28;20376;-92
2022/06/23 06:37:49;;;;;;;8.70;7.93;;;;;;;;;;5068968;28;20380;-91
2022/06/23 06:40:16;;;;;;;8.30;7.60;;;;;;;;;;5062910;28;20384;-91
2022/06/23 06:42:45;;;;;;;7.80;7.00;;;;;;;;;;5069941;28;20383;-92
2022/06/23 06:45:12;;;;;;;7.80;6.70;;;;;;;;;;5073942;28;20493;-91
2022/06/23 06:47:39;;;;;;;7.15;6.40;;;;;;;;;;5078276;28;20430;-91
2022/06/23 06:50:13;;;;;;;7.80;7.07;;;;;;;;;;5077342;28;20382;-91
2022/06/23 06:52:39;;;;;;;7.70;7.00;;;;;;;;;;5067535;28;20375;-90
2022/06/23 06:55:08;;;;;;;9.07;6.95;;;;;;;;;;5076451;28;20376;-90
2022/06/23 06:57:40;;;;;;;8.75;7.53;;;;;;;;;;5076058;28;20403;-89
2022/06/23 07:00:08;;;;;;;8.57;7.53;;;;;;;;;;5070087;28;20389;-91
2022/06/23 07:02:42;;;;;;;8.60;7.70;;;;;;;;;;5065281;28;20771;-91
2022/06/23 07:05:14;;;;;;;9.95;8.32;;;;;;;;;;5064045;28;20385;-91
2022/06/23 07:07:42;;;;;;;9.82;7.90;;;;;;;;;;5069312;28;20468;-90
2022/06/23 07:10:19;;;;;;;10.68;7.93;;;;;;;;;;5065044;28;20430;-91
2022/06/23 07:12:48;;;;;;;11.50;8.60;;;;;;;;;;5059428;28;20757;-90
2022/06/23 07:15:14;;;;;;;13.87;10.80;;;;;;;;;;5066552;28;20492;-91
2022/06/23 07:17:47;;;;;;;10.88;9.23;;;;;;;;;;5069109;28;20381;-91
2022/06/23 07:20:19;;;;;;;11.75;8.80;;;;;;;;;;5072744;28;20376;-92
2022/06/23 07:22:59;;;;;;;8.07;5.40;;;;;;;;;;5062021;28;20389;-92
2022/06/23 07:25:30;;;;;;;6.87;4.67;;;;;;;;;;5055914;28;20385;-91
2022/06/23 07:28:05;;;;;;;14.82;8.98;;;;;;;;;;5069341;28;20799;-91
2022/06/23 07:30:35;;;;;;;11.52;8.43;;;;;;;;;;5060217;28;20384;-89
2022/06/23 07:33:05;;;;;;;9.15;7.53;;;;;;;;;;5065778;28;20380;-90
2022/06/23 07:35:32;;;;;;;10.23;7.87;;;;;;;;;;5053896;28;20755;-91
2022/06/23 07:37:58;;;;;;;14.02;9.68;;;;;;;;;;5056982;28;20385;-87
2022/06/23 07:40:25;;;;;;;13.07;9.43;;;;;;;;;;5058341;28;20518;-89
2022/06/23 07:43:07;;;;;;;14.88;9.95;;;;;;;;;;5059410;28;20435;-88
2022/06/23 07:45:39;;;;;;;12.95;9.43;;;;;;;;;;5056306;28;20388;-89
2022/06/23 07:48:05;;;;;;;12.02;9.63;;;;;;;;;;5060849;28;20371;-90
2022/06/23 07:50:32;;;;;;;15.20;11.88;;;;;;;;;;5065692;28;20426;-89
2022/06/23 07:52:59;;;;;;;17.60;12.00;;;;;;;;;;5052867;28;20466;-90
2022/06/23 07:55:48;;;;;;;15.90;9.90;;;;;;;;;;5058961;28;20894;-92
2022/06/23 08:01:57;;;;;;;;;;;;;;;;;;;;;
2022/06/23 08:07:00;;;;;;;14.60;10.10;;;;;;;;;;5454150;22;20433;-90
2022/06/23 08:09:54;;;;;;;;;;;;;;;;;;;;;
2022/06/23 08:35:06;;;;;;;6.80;3.38;;;;;;;;;;5025422;28;20403;-91
2022/06/23 08:37:35;;;;;;;6.63;3.50;;;;;;;;;;4976898;28;20414;-88
2022/06/23 08:40:08;;;;;;;7.55;3.60;;;;;;;;;;5025309;28;20411;-89
2022/06/23 08:42:39;;;;;;;8.00;3.80;;;;;;;;;;5036858;28;20424;-88
2022/06/23 08:45:28;;;;;;;8.10;4.20;;;;;;;;;;5036120;28;20414;-88
2022/06/23 08:48:07;;;;;;;6.20;3.40;;;;;;;;;;5031802;28;20819;-88
2022/06/23 08:50:52;;;;;;;6.35;3.65;;;;;;;;;;5033006;28;20419;-88
2022/06/23 08:53:21;;;;;;;5.40;2.45;;;;;;;;;;5043054;28;20429;-88
2022/06/23 08:55:53;;;;;;;7.30;2.83;;;;;;;;;;5036400;28;20391;-88
2022/06/23 08:58:38;;;;;;;4.50;2.40;;;;;;;;;;5033024;28;20399;-89
2022/06/23 09:01:23;;;;;;;6.50;2.50;;;;;;;;;;5031397;28;20393;-88
2022/06/23 09:03:52;;;;;;;4.00;2.00;;;;;;;;;;5034978;28;20407;-88
2022/06/23 09:06:31;;;;;;;4.80;2.30;;;;;;;;;;5036159;28;20807;-87
2022/06/23 09:09:10;;;;;;;4.78;2.03;;;;;;;;;;5048197;28;20374;-88
2022/06/23 09:11:36;;;;;;;5.18;2.13;;;;;;;;;;5033241;28;20765;-88
2022/06/23 09:14:05;;;;;;;5.80;2.17;;;;;;;;;;5046047;28;20393;-88
2022/06/23 09:16:49;;;;;;;4.60;1.95;;;;;;;;;;5037459;28;20487;-88
2022/06/23 09:19:21;;;;;;;5.40;1.88;;;;;;;;;;5035135;28;20393;-89
2022/06/23 09:22:06;;;;;;;6.20;1.88;;;;;;;;;;5035242;28;20410;-88
2022/06/23 09:24:41;;;;;;;4.67;2.17;;;;;;;;;;5036132;28;20963;-89
2022/06/23 09:27:10;;;;;;;5.23;1.60;;;;;;;;;;5033818;28;20834;-89
2022/06/23 09:29:36;;;;;;;6.72;2.20;;;;;;;;;;5034696;28;20864;-88
2022/06/23 09:32:25;;;;;;;4.35;1.90;;;;;;;;;;5034760;28;20391;-89
2022/06/23 09:34:58;;;;;;;5.45;1.75;;;;;;;;;;5046542;28;20443;-89
2022/06/23 09:37:27;;;;;;;4.60;1.77;;;;;;;;;;5037564;28;20888;-89
2022/06/23 09:40:07;;;;;;;5.68;2.00;;;;;;;;;;5040376;28;20394;-89
2022/06/23 09:42:39;;;;;;;6.00;1.85;;;;;;;;;;5034954;28;20463;-89
2022/06/23 09:45:05;;;;;;;5.47;2.20;;;;;;;;;;5033806;28;20395;-90
2022/06/23 09:47:40;;;;;;;8.97;1.93;;;;;;;;;;5034079;28;20454;-89
2022/06/23 09:50:33;;;;;;;6.38;2.00;;;;;;;;;;5034313;28;20482;-92
2022/06/23 09:53:31;;;;;;;;;;;;;;;;;;;;;
2022/06/23 09:56:29;;;;;;;;;;;;;;;;;;;;;
2022/06/23 09:59:04;;;;;;;3.63;1.63;;;;;;;;;;5048879;28;20475;-92
2022/06/23 10:01:52;;;;;;;7.43;1.70;;;;;;;;;;5038899;28;20391;-91
2022/06/23 10:07:38;;;;;;;5.28;1.98;;;;;;;;;;4999101;28;20407;-91
2022/06/23 10:10:25;;;;;;;5.80;1.77;;;;;;;;;;5033353;28;20944;-90
2022/06/23 10:13:10;;;;;;;7.20;1.80;;;;;;;;;;5034864;28;20441;-90
2022/06/23 10:15:54;;;;;;;6.88;1.83;;;;;;;;;;5032391;28;21167;-90
2022/06/23 10:18:49;;;;;;;;;;;;;;;;;;;;;
2022/06/23 10:21:40;;;;;;;7.93;1.98;;;;;;;;;;5038754;28;20450;-91
2022/06/23 10:24:53;;;;;;;8.93;2.25;;;;;;;;;;5043016;28;20434;-91
2022/06/23 10:27:40;;;;;;;8.02;2.20;;;;;;;;;;5017918;28;20396;-92
2022/06/23 10:30:30;;;;;;;6.75;1.90;;;;;;;;;;5052457;28;20387;-90
2022/06/23 10:33:27;;;;;;;7.25;2.08;;;;;;;;;;5021182;28;20528;-88
2022/06/23 10:36:05;;;;;;;5.45;1.73;;;;;;;;;;5037489;28;20389;-90
2022/06/23 10:38:52;;;;;;;5.95;1.98;;;;;;;;;;5043795;28;20398;-91
2022/06/23 10:41:43;;;;;;;8.90;2.00;;;;;;;;;;5030640;28;20758;-91
2022/06/23 10:44:23;;;;;;;6.85;2.30;;;;;;;;;;5028659;28;20407;-90
2022/06/23 10:47:12;;;;;;;9.80;2.10;;;;;;;;;;5038162;28;20383;-91
2022/06/23 10:49:56;;;;;;;6.47;1.85;;;;;;;;;;5019188;28;20406;-90
2022/06/23 10:58:07;;;;;;;6.60;2.13;;;;;;;;;;5090222;22;20516;-89
2022/06/23 11:00:49;;;;;;;8.50;2.30;;;;;;;;;;5065886;28;20391;-90
2022/06/23 11:03:33;;;;;;;8.45;2.08;;;;;;;;;;5072504;28;20425;-91
2022/06/23 11:06:09;;;;;;;8.60;2.33;;;;;;;;;;5073005;28;20443;-91
2022/06/23 11:08:53;;;;;;;6.85;2.08;;;;;;;;;;5073637;28;20385;-90
2022/06/23 11:11:28;;;;;;;4.72;1.67;;;;;;;;;;5072374;28;20463;-90
2022/06/23 11:13:54;;;;;;;7.68;2.05;;;;;;;;;;5072194;28;20443;-92
2022/06/23 11:16:32;;;;;;;6.22;2.10;;;;;;;;;;5060158;28;20400;-91
2022/06/23 11:19:18;;;;;;;7.70;2.13;;;;;;;;;;5074849;28;20388;-91
2022/06/23 11:21:47;;;;;;;8.10;2.13;;;;;;;;;;5073999;28;20437;-90
2022/06/23 11:24:16;;;;;;;7.53;2.15;;;;;;;;;;5068121;28;20483;-91
2022/06/23 11:26:56;;;;;;;6.82;2.30;;;;;;;;;;5072778;28;20388;-91
2022/06/23 11:29:33;;;;;;;9.35;2.50;;;;;;;;;;5074160;28;20865;-90
2022/06/23 11:32:29;;;;;;;7.67;2.17;;;;;;;;;;5072530;28;20411;-90
2022/06/23 11:34:55;;;;;;;8.10;2.80;;;;;;;;;;5059582;28;20387;-89
2022/06/23 11:37:33;;;;;;;8.85;2.58;;;;;;;;;;5073954;28;20402;-90
2022/06/23 11:40:02;;;;;;;7.35;2.33;;;;;;;;;;5073314;28;20469;-91
2022/06/23 11:42:34;;;;;;;9.10;2.28;;;;;;;;;;5073769;28;20455;-90
2022/06/23 11:45:18;;;;;;;7.03;2.15;;;;;;;;;;5072130;28;20408;-90
2022/06/23 11:47:47;;;;;;;6.37;2.07;;;;;;;;;;5066798;28;20399;-91
2022/06/23 11:50:32;;;;;;;8.70;2.08;;;;;;;;;;5071570;28;20387;-90
2022/06/23 11:53:04;;;;;;;4.90;1.90;;;;;;;;;;5074511;28;20466;-91
2022/06/23 11:55:37;;;;;;;6.97;2.28;;;;;;;;;;5073870;28;20409;-91
2022/06/23 11:58:22;;;;;;;6.68;2.17;;;;;;;;;;5073253;28;20379;-89
2022/06/23 12:01:07;;;;;;;6.85;1.83;;;;;;;;;;5070745;28;20418;-90
2022/06/23 12:03:45;;;;;;;8.70;1.88;;;;;;;;;;5073159;28;20403;-89
2022/06/23 12:06:30;;;;;;;6.72;1.80;;;;;;;;;;5076954;28;20880;-89
2022/06/23 12:09:22;;;;;;;6.77;1.77;;;;;;;;;;5076463;28;20750;-88
2022/06/23 12:11:49;;;;;;;6.97;2.20;;;;;;;;;;5075409;28;20776;-89
2022/06/23 12:14:16;;;;;;;5.32;1.70;;;;;;;;;;5076417;28;20745;-89
2022/06/23 12:16:49;;;;;;;11.10;2.30;;;;;;;;;;5076340;28;20379;-88
2022/06/23 12:19:18;;;;;;;6.47;2.15;;;;;;;;;;5072917;28;20379;-89
2022/06/23 12:21:57;;;;;;;7.22;1.80;;;;;;;;;;5073903;28;20372;-89
2022/06/23 12:24:26;;;;;;;7.97;1.87;;;;;;;;;;5074408;28;20911;-88
2022/06/23 12:27:10;;;;;;;7.18;2.00;;;;;;;;;;5071338;28;20395;-89
2022/06/23 12:29:59;;;;;;;7.57;1.98;;;;;;;;;;5064928;28;20390;-89
2022/06/23 12:32:25;;;;;;;7.03;1.92;;;;;;;;;;5072726;28;20462;-89
2022/06/23 12:35:02;;;;;;;7.45;1.92;;;;;;;;;;5075096;28;20398;-89
2022/06/23 12:37:40;;;;;;;6.43;1.92;;;;;;;;;;5070360;28;20423;-88
2022/06/23 12:40:07;;;;;;;5.63;1.70;;;;;;;;;;5076874;28;20384;-89
2022/06/23 12:42:33;;;;;;;5.88;1.98;;;;;;;;;;5069419;28;20384;-89
2022/06/23 12:44:59;;;;;;;5.00;1.73;;;;;;;;;;5066220;28;20420;-90
2022/06/23 12:47:35;;;;;;;5.90;1.70;;;;;;;;;;5076119;28;20380;-88
2022/06/23 12:50:07;;;;;;;7.85;2.10;;;;;;;;;;5076102;28;20368;-88
2022/06/23 12:52:43;;;;;;;5.85;1.70;;;;;;;;;;5075037;28;20776;-88
2022/06/23 12:55:12;;;;;;;6.67;1.83;;;;;;;;;;5075830;28;20380;-89
2022/06/23 12:57:44;;;;;;;4.65;1.70;;;;;;;;;;5076672;28;20391;-88
2022/06/23 13:00:18;;;;;;;6.72;1.80;;;;;;;;;;5071115;28;20391;-88
2022/06/23 13:02:54;;;;;;;4.32;1.70;;;;;;;;;;5076678;28;20375;-89
2022/06/23 13:05:22;;;;;;;9.80;2.30;;;;;;;;;;5078443;28;20375;-89
2022/06/23 13:08:07;;;;;;;7.38;2.15;;;;;;;;;;5075492;28;20877;-88
2022/06/23 13:10:46;;;;;;;6.82;2.05;;;;;;;;;;5071860;28;20377;-90
2022/06/23 13:13:22;;;;;;;7.07;1.85;;;;;;;;;;5070857;28;20773;-86
2022/06/23 13:15:48;;;;;;;10.02;2.20;;;;;;;;;;5071153;28;20437;-88
2022/06/23 13:18:28;;;;;;;8.80;2.50;;;;;;;;;;5073982;28;20860;-87
2022/06/23 13:21:15;;;;;;;5.93;1.77;;;;;;;;;;5075288;28;20790;-88
2022/06/23 13:23:46;;;;;;;5.85;1.73;;;;;;;;;;5061970;28;20439;-85
2022/06/23 13:26:17;;;;;;;7.68;2.20;;;;;;;;;;5070462;28;20466;-85
2022/06/23 13:28:44;;;;;;;9.25;1.73;;;;;;;;;;5074500;28;20364;-85
2022/06/23 13:31:22;;;;;;;6.18;1.92;;;;;;;;;;5074563;28;20426;-87
2022/06/23 13:33:59;;;;;;;8.95;2.33;;;;;;;;;;5076285;28;20406;-87
2022/06/23 13:36:29;;;;;;;9.48;2.00;;;;;;;;;;5073754;28;20424;-89
2022/06/23 13:38:55;;;;;;;6.93;2.13;;;;;;;;;;5074863;28;20443;-90
2022/06/23 13:41:42;;;;;;;8.77;1.70;;;;;;;;;;5074887;28;20788;-88
2022/06/23 13:44:14;;;;;;;8.60;1.80;;;;;;;;;;5074312;28;20408;-89
2022/06/23 13:46:49;;;;;;;8.82;2.10;;;;;;;;;;5073412;28;20434;-88
2022/06/23 13:49:27;;;;;;;7.25;1.75;;;;;;;;;;5070057;28;20857;-88
2022/06/23 13:51:53;;;;;;;7.10;2.03;;;;;;;;;;5072552;28;20375;-87
2022/06/23 13:54:25;;;;;;;6.82;1.70;;;;;;;;;;5075217;28;20391;-88
2022/06/23 13:57:09;;;;;;;4.07;1.60;;;;;;;;;;5074750;28;20897;-88
2022/06/23 13:59:54;;;;;;;7.63;1.50;;;;;;;;;;5074231;28;20429;-87
2022/06/23 14:02:34;;;;;;;7.15;1.98;;;;;;;;;;5070900;28;20399;-86
2022/06/23 14:05:32;;;;;;;6.38;1.73;;;;;;;;;;5071224;28;20399;-87
2022/06/23 14:08:02;;;;;;;7.47;1.70;;;;;;;;;;5039243;28;20380;-87
2022/06/23 14:10:29;;;;;;;8.20;1.95;;;;;;;;;;5073221;28;20376;-87
2022/06/23 14:12:55;;;;;;;7.72;1.80;;;;;;;;;;5072958;28;20374;-86
2022/06/23 14:15:26;;;;;;;10.50;1.80;;;;;;;;;;5070300;28;20412;-87
2022/06/23 14:18:07;;;;;;;6.28;1.70;;;;;;;;;;5072780;28;20372;-86
2022/06/23 14:20:37;;;;;;;5.82;1.90;;;;;;;;;;5070405;28;20360;-86
2022/06/23 14:23:20;;;;;;;6.97;1.85;;;;;;;;;;5059646;28;20404;-86
2022/06/23 14:25:54;;;;;;;6.43;1.80;;;;;;;;;;5071781;28;20376;-87
2022/06/23 14:28:25;;;;;;;7.10;2.00;;;;;;;;;;5070943;28;20388;-87
2022/06/23 14:30:51;;;;;;;5.47;1.48;;;;;;;;;;5072929;28;20394;-87
2022/06/23 14:33:20;;;;;;;8.38;2.05;;;;;;;;;;5072730;28;20380;-86
2022/06/23 14:35:52;;;;;;;6.40;1.70;;;;;;;;;;5060061;28;20384;-87
2022/06/23 14:38:26;;;;;;;6.53;1.77;;;;;;;;;;5068744;28;20510;-86
2022/06/23 14:40:55;;;;;;;4.82;1.60;;;;;;;;;;5066848;28;20384;-87
2022/06/23 14:43:21;;;;;;;5.88;1.60;;;;;;;;;;5072224;28;20473;-86
2022/06/23 14:45:56;;;;;;;5.95;1.90;;;;;;;;;;5071138;28;20732;-87
2022/06/23 14:48:33;;;;;;;7.25;1.73;;;;;;;;;;5071210;28;20380;-87
2022/06/23 14:51:07;;;;;;;7.25;1.95;;;;;;;;;;5071940;28;20383;-85
2022/06/23 14:53:48;;;;;;;9.13;2.10;;;;;;;;;;5071818;28;20401;-86
2022/06/23 14:56:34;;;;;;;7.57;2.40;;;;;;;;;;5071836;28;20521;-86
2022/06/23 14:59:15;;;;;;;5.72;1.80;;;;;;;;;;5058331;28;20432;-89
2022/06/23 15:01:44;;;;;;;6.47;1.73;;;;;;;;;;5066974;28;20388;-87
2022/06/23 15:04:19;;;;;;;6.85;1.92;;;;;;;;;;5058967;28;20413;-87
2022/06/23 15:06:50;;;;;;;10.90;1.97;;;;;;;;;;5071365;28;21630;-86
2022/06/23 15:09:25;;;;;;;7.00;2.10;;;;;;;;;;5072046;28;20674;-87
2022/06/23 15:12:01;;;;;;;6.77;2.23;;;;;;;;;;5073116;28;20399;-89
2022/06/23 15:14:45;;;;;;;5.28;1.80;;;;;;;;;;5074368;28;20376;-90
2022/06/23 15:17:23;;;;;;;8.55;1.90;;;;;;;;;;5072605;28;20873;-90
2022/06/23 15:19:54;;;;;;;6.40;1.83;;;;;;;;;;5073940;28;20491;-90
2022/06/23 15:25:23;;;;;;;6.50;1.88;;;;;;;;;;5073446;28;20382;-89
2022/06/23 15:27:59;;;;;;;8.68;1.98;;;;;;;;;;5072637;28;20473;-90
2022/06/23 15:30:31;;;;;;;5.67;1.70;;;;;;;;;;5073014;28;20459;-90
2022/06/23 15:33:08;;;;;;;7.20;2.03;;;;;;;;;;5073320;28;20390;-90
2022/06/23 15:35:37;;;;;;;7.95;2.00;;;;;;;;;;5053078;28;20867;-91
2022/06/23 15:38:15;;;;;;;8.43;1.88;;;;;;;;;;5056511;28;20387;-90
2022/06/23 15:41:08;;;;;;;8.57;2.08;;;;;;;;;;5071637;28;20425;-90
2022/06/23 15:43:40;;;;;;;8.53;2.27;;;;;;;;;;5033953;28;20496;-90
2022/06/23 15:46:21;;;;;;;6.83;1.77;;;;;;;;;;5055259;28;20381;-90
2022/06/23 15:48:54;;;;;;;6.30;1.90;;;;;;;;;;5068852;28;20387;-89
2022/06/23 15:51:23;;;;;;;6.82;2.00;;;;;;;;;;5072995;28;20372;-90
2022/06/23 15:53:54;;;;;;;6.67;1.80;;;;;;;;;;5071302;28;20402;-90
2022/06/23 15:56:23;;;;;;;6.15;1.88;;;;;;;;;;5073142;28;20811;-91
2022/06/23 15:58:55;;;;;;;9.48;2.05;;;;;;;;;;5059410;28;20392;-89
2022/06/23 16:01:24;;;;;;;5.80;1.80;;;;;;;;;;5071781;28;20379;-89
2022/06/23 16:03:52;;;;;;;7.88;2.15;;;;;;;;;;5072683;28;20460;-89
2022/06/23 16:06:35;;;;;;;8.75;2.10;;;;;;;;;;5071603;28;20392;-89
2022/06/23 16:09:06;;;;;;;5.80;1.92;;;;;;;;;;5073218;28;20387;-90
2022/06/23 16:11:40;;;;;;;7.85;2.10;;;;;;;;;;5071897;28;20390;-89
2022/06/23 16:14:07;;;;;;;7.55;2.15;;;;;;;;;;5072381;28;20386;-90
2022/06/23 16:16:38;;;;;;;6.55;1.80;;;;;;;;;;5073150;28;20390;-89
2022/06/23 16:19:11;;;;;;;6.47;1.65;;;;;;;;;;5073130;28;20433;-90